Jork Reliance — V2CL2 — position and weather

sailwx.info

Track history (hours):
 
Tides and Currents Weather Stations Pressure Air Temp Water Temp Dewpoint Dewpoint Depression Visibility Wind Speed Wind Dir Waves Ship Positions

Jork Reliance

Last reported at 2014-Aug-20 21:28 UTC. Time now 2014-Aug-20 22:29 UTC.
Position N 49°28' E 000°08'.

Length 141 m; draft 5.8 m.

Type: Ship (hazmat cat A). MMSI: 305033000.

Date/timePositionNaut miles runAvg speedWind from/ knotsBaromVisibWave heightAir tempDewpointWater temp
2014-Aug-20 21:28N 49°28' E 000°08'0 0.0
2014-Aug-20 20:31N 49°28' E 000°08'0 0.0
2014-Aug-20 19:31N 49°28' E 000°08'0 0.0
2014-Aug-20 18:33N 49°28' E 000°08'1111.4
2014-Aug-20 17:34N 49°32' W 000°08'5814.4
2014-Aug-20 13:30N 50°30' E 000°08'1616.5
2014-Aug-20 12:34N 50°36' E 000°31'1716.8
2014-Aug-20 11:34N 50°45' E 000°53'2116.3
2014-Aug-20 10:18N 50°57' E 001°20'1215.8
2014-Aug-20 09:34N 51°05' E 001°33'1515.1
2014-Aug-20 08:34N 51°16' E 001°49'1413.3
2014-Aug-20 07:32N 51°23' E 002°07'1514.8
2014-Aug-20 06:30N 51°23' E 002°32'1414.5
2014-Aug-20 05:33N 51°23' E 002°54'1515.2
2014-Aug-20 04:33N 51°25' E 003°18'1212.5
2014-Aug-20 03:34N 51°26' E 003°38'1212.4
2014-Aug-20 02:34N 51°25' E 003°58'1212.3
2014-Aug-20 01:34N 51°21' E 004°16'0 0.4
2014-Aug-20 00:34N 51°21' E 004°17'1 0.6
2014-Aug-19 23:33N 51°21' E 004°18'2 1.8
2014-Aug-19 22:33N 51°20' E 004°20'0 0.0
2014-Aug-19 21:33N 51°20' E 004°20'0 0.0
2014-Aug-19 20:33N 51°20' E 004°20'0 0.0
2014-Aug-19 19:33N 51°20' E 004°20'0 0.0
2014-Aug-19 18:30N 51°20' E 004°20'0 0.0
2014-Aug-19 17:33N 51°20' E 004°20'0 0.0
2014-Aug-19 16:33N 51°20' E 004°20'0 0.0
2014-Aug-19 15:33N 51°20' E 004°20'0 0.0
2014-Aug-19 14:33N 51°20' E 004°20'0 0.0
2014-Aug-19 13:27N 51°20' E 004°20'0 0.0
2014-Aug-19 12:33N 51°20' E 004°20'0 0.0
2014-Aug-19 11:33N 51°20' E 004°20'0 0.0
2014-Aug-19 10:24N 51°20' E 004°20'0 0.0
2014-Aug-19 09:33N 51°20' E 004°20'2 2.3
2014-Aug-19 08:34N 51°21' E 004°17'0 0.1
2014-Aug-19 07:33N 51°21' E 004°17'3 2.8
2014-Aug-19 06:33N 51°22' E 004°13'4 3.5
2014-Aug-19 05:33N 51°22' E 004°08'5 5.3
2014-Aug-19 04:33N 51°26' E 004°01'1211.8
2014-Aug-19 03:33N 51°23' E 003°43'1414.4
2014-Aug-19 02:33N 51°24' E 003°20'1514.7
2014-Aug-19 01:33N 51°22' E 002°56'1514.7
2014-Aug-19 00:32N 51°22' E 002°33'1414.1
2014-Aug-18 23:33N 51°16' E 002°12'1414.3
2014-Aug-18 22:33N 51°08' E 001°53'6 6.4
2014-Aug-18 21:33N 51°02' E 001°55'10 4.6
2014-Aug-18 19:22N 51°01' E 002°11'0 0.0
2014-Aug-18 18:07N 51°01' E 002°11'0 0.0
2014-Aug-18 16:28N 51°01' E 002°11'4 1.1
2014-Aug-18 13:10N 51°03' E 002°06'914.8
2014-Aug-18 12:33N 51°02' E 001°52'6 5.6
2014-Aug-18 11:33N 51°01' E 001°43'5 4.8
2014-Aug-18 10:33N 50°59' E 001°36'5 5.2
2014-Aug-18 09:33N 50°55' E 001°31'22 9.4
2014-Aug-18 07:12N 50°36' E 001°12'812.9
2014-Aug-18 06:33N 50°31' E 001°01'1812.8
2014-Aug-18 05:10N 50°25' E 000°35'913.1
2014-Aug-18 04:29N 50°22' E 000°22'321 7.2
2014-Aug-16 08:04N 45°04' W 000°39'5 9.9
2014-Aug-16 07:32N 45°00' W 000°34'6 0.5
2014-Aug-15 18:20N 44°54' W 000°32'  
2014-Aug-12 17:33N 49°41' W 000°38'1413.5
2014-Aug-12 16:33N 49°35' W 000°20'1313.4
2014-Aug-12 15:33N 49°30' W 000°01'6 6.0
2014-Aug-12 14:31N 49°28' E 000°09'0 0.0
2014-Aug-12 13:31N 49°28' E 000°09'0 0.0
2014-Aug-12 12:31N 49°28' E 000°09'0 0.0
2014-Aug-12 11:31N 49°28' E 000°09'0 0.0
2014-Aug-12 10:31N 49°28' E 000°09'0 0.0
2014-Aug-12 09:31N 49°28' E 000°09'0 0.0
2014-Aug-12 08:31N 49°28' E 000°09'0 0.0
2014-Aug-12 07:31N 49°28' E 000°09'0 0.0
2014-Aug-12 06:31N 49°28' E 000°09'0 0.0
2014-Aug-12 05:31N 49°28' E 000°09'0 0.0
2014-Aug-12 04:31N 49°28' E 000°09'0 0.0
2014-Aug-12 03:31N 49°28' E 000°09'0 0.0
2014-Aug-12 02:31N 49°28' E 000°09'0 0.0
2014-Aug-12 01:31N 49°28' E 000°09'0 0.0
2014-Aug-12 00:31N 49°28' E 000°09'0 0.0
2014-Aug-11 23:31N 49°28' E 000°09'0 0.0
2014-Aug-11 22:31N 49°28' E 000°09'0 0.0
2014-Aug-11 21:31N 49°28' E 000°09'0 0.0
2014-Aug-11 20:31N 49°28' E 000°09'0 0.2
2014-Aug-11 19:33N 49°28' E 000°09'1010.0
2014-Aug-11 18:33N 49°31' W 000°06'5 4.8
2014-Aug-11 17:33N 49°35' W 000°10'1 1.1
2014-Aug-11 16:33N 49°34' W 000°11'1211.7
2014-Aug-11 15:31N 49°46' W 000°11'4611.3
2014-Aug-11 11:26N 50°30' E 000°11'1112.8
2014-Aug-11 10:33N 50°34' E 000°28'1212.3
2014-Aug-11 09:33N 50°40' E 000°45'1313.0
2014-Aug-11 08:33N 50°48' E 001°01'1615.9
2014-Aug-11 07:33N 50°57' E 001°21'1817.6
2014-Aug-11 06:33N 51°10' E 001°41'1616.0
2014-Aug-11 05:34N 51°23' E 001°57'1313.3
2014-Aug-11 04:33N 51°21' E 002°18'1414.0
2014-Aug-11 03:33N 51°23' E 002°40'1211.8
2014-Aug-11 02:33N 51°23' E 002°59'1313.0
2014-Aug-11 01:33N 51°24' E 003°19'1111.1
2014-Aug-11 00:34N 51°26' E 003°37'1111.4
2014-Aug-10 23:33N 51°22' E 003°54'8 8.5
2014-Aug-10 22:33N 51°22' E 004°08'6 6.0
2014-Aug-10 21:34N 51°21' E 004°17'  
Track history (hours):
 
Tides and Currents Weather Stations Pressure Air Temp Water Temp Dewpoint Dewpoint Depression Visibility Wind Speed Wind Dir Waves Ship Positions

Jork Reliance

Last reported at 2014-Aug-20 21:28 UTC. Time now 2014-Aug-20 22:29 UTC.
Position N 49°28' E 000°08'.

Length 141 m; draft 5.8 m.

Type: Ship (hazmat cat A). MMSI: 305033000.

Date/timePositionNaut miles runAvg speedWind from/ knotsBaromVisibWave heightAir tempDewpointWater temp
2014-Aug-20 21:28N 49°28' E 000°08'0 0.0
2014-Aug-20 20:31N 49°28' E 000°08'0 0.0
2014-Aug-20 19:31N 49°28' E 000°08'0 0.0
2014-Aug-20 18:33N 49°28' E 000°08'1111.4
2014-Aug-20 17:34N 49°32' W 000°08'5814.4
2014-Aug-20 13:30N 50°30' E 000°08'1616.5
2014-Aug-20 12:34N 50°36' E 000°31'1716.8
2014-Aug-20 11:34N 50°45' E 000°53'2116.3
2014-Aug-20 10:18N 50°57' E 001°20'1215.8
2014-Aug-20 09:34N 51°05' E 001°33'1515.1
2014-Aug-20 08:34N 51°16' E 001°49'1413.3
2014-Aug-20 07:32N 51°23' E 002°07'1514.8
2014-Aug-20 06:30N 51°23' E 002°32'1414.5
2014-Aug-20 05:33N 51°23' E 002°54'1515.2
2014-Aug-20 04:33N 51°25' E 003°18'1212.5
2014-Aug-20 03:34N 51°26' E 003°38'1212.4
2014-Aug-20 02:34N 51°25' E 003°58'1212.3
2014-Aug-20 01:34N 51°21' E 004°16'0 0.4
2014-Aug-20 00:34N 51°21' E 004°17'1 0.6
2014-Aug-19 23:33N 51°21' E 004°18'2 1.8
2014-Aug-19 22:33N 51°20' E 004°20'0 0.0
2014-Aug-19 21:33N 51°20' E 004°20'0 0.0
2014-Aug-19 20:33N 51°20' E 004°20'0 0.0
2014-Aug-19 19:33N 51°20' E 004°20'0 0.0
2014-Aug-19 18:30N 51°20' E 004°20'0 0.0
2014-Aug-19 17:33N 51°20' E 004°20'0 0.0
2014-Aug-19 16:33N 51°20' E 004°20'0 0.0
2014-Aug-19 15:33N 51°20' E 004°20'0 0.0
2014-Aug-19 14:33N 51°20' E 004°20'0 0.0
2014-Aug-19 13:27N 51°20' E 004°20'0 0.0
2014-Aug-19 12:33N 51°20' E 004°20'0 0.0
2014-Aug-19 11:33N 51°20' E 004°20'0 0.0
2014-Aug-19 10:24N 51°20' E 004°20'0 0.0
2014-Aug-19 09:33N 51°20' E 004°20'2 2.3
2014-Aug-19 08:34N 51°21' E 004°17'0 0.1
2014-Aug-19 07:33N 51°21' E 004°17'3 2.8
2014-Aug-19 06:33N 51°22' E 004°13'4 3.5
2014-Aug-19 05:33N 51°22' E 004°08'5 5.3
2014-Aug-19 04:33N 51°26' E 004°01'1211.8
2014-Aug-19 03:33N 51°23' E 003°43'1414.4
2014-Aug-19 02:33N 51°24' E 003°20'1514.7
2014-Aug-19 01:33N 51°22' E 002°56'1514.7
2014-Aug-19 00:32N 51°22' E 002°33'1414.1
2014-Aug-18 23:33N 51°16' E 002°12'1414.3
2014-Aug-18 22:33N 51°08' E 001°53'6 6.4
2014-Aug-18 21:33N 51°02' E 001°55'10 4.6
2014-Aug-18 19:22N 51°01' E 002°11'0 0.0
2014-Aug-18 18:07N 51°01' E 002°11'0 0.0
2014-Aug-18 16:28N 51°01' E 002°11'4 1.1
2014-Aug-18 13:10N 51°03' E 002°06'914.8
2014-Aug-18 12:33N 51°02' E 001°52'6 5.6
2014-Aug-18 11:33N 51°01' E 001°43'5 4.8
2014-Aug-18 10:33N 50°59' E 001°36'5 5.2
2014-Aug-18 09:33N 50°55' E 001°31'22 9.4
2014-Aug-18 07:12N 50°36' E 001°12'812.9
2014-Aug-18 06:33N 50°31' E 001°01'1812.8
2014-Aug-18 05:10N 50°25' E 000°35'913.1
2014-Aug-18 04:29N 50°22' E 000°22'321 7.2
2014-Aug-16 08:04N 45°04' W 000°39'5 9.9
2014-Aug-16 07:32N 45°00' W 000°34'6 0.5
2014-Aug-15 18:20N 44°54' W 000°32'  
2014-Aug-12 17:33N 49°41' W 000°38'1413.5
2014-Aug-12 16:33N 49°35' W 000°20'1313.4
2014-Aug-12 15:33N 49°30' W 000°01'6 6.0
2014-Aug-12 14:31N 49°28' E 000°09'0 0.0
2014-Aug-12 13:31N 49°28' E 000°09'0 0.0
2014-Aug-12 12:31N 49°28' E 000°09'0 0.0
2014-Aug-12 11:31N 49°28' E 000°09'0 0.0
2014-Aug-12 10:31N 49°28' E 000°09'0 0.0
2014-Aug-12 09:31N 49°28' E 000°09'0 0.0
2014-Aug-12 08:31N 49°28' E 000°09'0 0.0
2014-Aug-12 07:31N 49°28' E 000°09'0 0.0
2014-Aug-12 06:31N 49°28' E 000°09'0 0.0
2014-Aug-12 05:31N 49°28' E 000°09'0 0.0
2014-Aug-12 04:31N 49°28' E 000°09'0 0.0
2014-Aug-12 03:31N 49°28' E 000°09'0 0.0
2014-Aug-12 02:31N 49°28' E 000°09'0 0.0
2014-Aug-12 01:31N 49°28' E 000°09'0 0.0
2014-Aug-12 00:31N 49°28' E 000°09'0 0.0
2014-Aug-11 23:31N 49°28' E 000°09'0 0.0
2014-Aug-11 22:31N 49°28' E 000°09'0 0.0
2014-Aug-11 21:31N 49°28' E 000°09'0 0.0
2014-Aug-11 20:31N 49°28' E 000°09'0 0.2
2014-Aug-11 19:33N 49°28' E 000°09'1010.0
2014-Aug-11 18:33N 49°31' W 000°06'5 4.8
2014-Aug-11 17:33N 49°35' W 000°10'1 1.1
2014-Aug-11 16:33N 49°34' W 000°11'1211.7
2014-Aug-11 15:31N 49°46' W 000°11'4611.3
2014-Aug-11 11:26N 50°30' E 000°11'1112.8
2014-Aug-11 10:33N 50°34' E 000°28'1212.3
2014-Aug-11 09:33N 50°40' E 000°45'1313.0
2014-Aug-11 08:33N 50°48' E 001°01'1615.9
2014-Aug-11 07:33N 50°57' E 001°21'1817.6
2014-Aug-11 06:33N 51°10' E 001°41'1616.0
2014-Aug-11 05:34N 51°23' E 001°57'1313.3
2014-Aug-11 04:33N 51°21' E 002°18'1414.0
2014-Aug-11 03:33N 51°23' E 002°40'1211.8
2014-Aug-11 02:33N 51°23' E 002°59'1313.0
2014-Aug-11 01:33N 51°24' E 003°19'1111.1
2014-Aug-11 00:34N 51°26' E 003°37'1111.4
2014-Aug-10 23:33N 51°22' E 003°54'8 8.5
2014-Aug-10 22:33N 51°22' E 004°08'6 6.0
2014-Aug-10 21:34N 51°21' E 004°17'  

Dump ship's entire track history